Huvudsida
METAR-TAF:

METAR-TAF

Flygplatser :

Namsos flygplats. Høknesøra

Namsos, Norge

latitud: 64-28N, longitud: 011-35E, höjd: 0 m

Aktuellt väderrapport

Denna rapport gjordes för 12 minuter sedan, klockan 13:50 UTC
Vind 18 kt från syd/sydväst
Temperatur 12°C
Fuktighet 71%
Tryck 996 hPa
Sikt 10 km eller mer
Få moln på en höjd av 1500 ft
Brutna moln på en höjd av 3300 ft
lätta regnskurar

METAR: ENNM 191350Z 21018KT 9999 -SHRA FEW015 BKN033 12/07 Q0996

Tid: 16:02 (14:02 UTC)


TAF: saknas

Aktuella väderrapporter och prognoser från 4000 flygplatser (METAR- och TAF-rapporter).

De tillgängliga stationerna syns som gula och röda prickar på kartan.

För musen över prickarna för att se namnen på stationerna.

Klicka sedan för att få väderrapporter och prognoser.

För att ändra kartan: Klicka på de gröna knapparna med ett svart kors på för att zooma in; den gröna knappen med ett streck på för att zooma ut; eller på de gröna pilarna för angränsande kartor.


METAR-TAF: